createdAt,value
2018-01-30T00:00:25.353Z,8.00
2018-01-30T00:02:51.600Z,8.00
2018-01-30T00:05:18.623Z,8.00
2018-01-30T00:07:45.031Z,7.90
2018-01-30T00:10:11.273Z,7.90
2018-01-30T00:12:37.490Z,7.80
2018-01-30T00:15:04.117Z,7.70
2018-01-30T00:17:30.330Z,7.70
2018-01-30T00:19:57.149Z,7.70
2018-01-30T00:22:23.511Z,7.60
2018-01-30T00:24:49.846Z,7.50
2018-01-30T00:27:16.310Z,7.50
2018-01-30T00:29:42.752Z,7.50
2018-01-30T00:32:09.299Z,7.40
2018-01-30T00:34:37.618Z,7.30
2018-01-30T00:37:03.971Z,7.30
2018-01-30T00:39:30.375Z,7.30
2018-01-30T00:41:56.797Z,7.20
2018-01-30T00:44:23.044Z,7.20
2018-01-30T00:46:49.409Z,7.20
2018-01-30T00:49:15.976Z,7.10
2018-01-30T00:51:42.272Z,7.10
2018-01-30T00:54:08.501Z,7.10
2018-01-30T00:56:35.064Z,7.00
2018-01-30T00:59:01.299Z,6.90
2018-01-30T01:01:27.572Z,6.90
2018-01-30T01:03:53.890Z,6.90
2018-01-30T01:06:20.245Z,6.80
2018-01-30T01:08:51.772Z,6.70
2018-01-30T01:11:18.195Z,6.70
2018-01-30T01:13:44.422Z,6.70
2018-01-30T01:16:10.800Z,6.60
2018-01-30T01:18:37.061Z,6.60
2018-01-30T01:21:03.307Z,6.60
2018-01-30T01:23:29.565Z,6.50
2018-01-30T01:25:56.661Z,6.50
2018-01-30T01:28:25.011Z,6.50
2018-01-30T01:30:51.504Z,6.50
2018-01-30T01:33:18.129Z,6.40
2018-01-30T01:35:44.837Z,6.40
2018-01-30T01:38:12.468Z,6.40
2018-01-30T01:40:40.269Z,6.30
2018-01-30T01:43:08.010Z,6.30
2018-01-30T01:45:34.368Z,6.30
2018-01-30T01:48:00.645Z,6.30
2018-01-30T01:50:27.026Z,6.20
2018-01-30T01:52:54.257Z,6.20
2018-01-30T01:55:20.713Z,6.20
2018-01-30T01:57:47.640Z,6.10
2018-01-30T02:00:13.964Z,6.10
2018-01-30T02:02:41.028Z,6.00
2018-01-30T02:05:08.089Z,6.00
2018-01-30T02:07:34.536Z,6.00
2018-01-30T02:10:00.804Z,6.00
2018-01-30T02:12:27.055Z,6.00
2018-01-30T02:14:53.599Z,6.00
2018-01-30T02:17:20.376Z,6.00
2018-01-30T02:19:46.865Z,5.90
2018-01-30T02:22:13.967Z,5.80
2018-01-30T02:24:40.511Z,5.80
2018-01-30T02:27:06.834Z,5.80
2018-01-30T02:29:33.069Z,5.80
2018-01-30T02:31:59.253Z,5.80
2018-01-30T02:34:25.633Z,5.80
2018-01-30T02:36:51.930Z,5.70
2018-01-30T02:39:18.294Z,5.70
2018-01-30T02:41:46.239Z,5.70
2018-01-30T02:44:12.642Z,5.60
2018-01-30T02:46:38.932Z,5.60
2018-01-30T02:49:05.232Z,5.50
2018-01-30T02:51:32.344Z,5.30
2018-01-30T02:53:59.297Z,5.30
2018-01-30T02:56:25.864Z,5.30
2018-01-30T02:58:52.702Z,5.20
2018-01-30T03:01:19.682Z,5.20
2018-01-30T03:03:46.270Z,5.30
2018-01-30T03:06:12.685Z,5.10
2018-01-30T03:08:39.198Z,5.00
2018-01-30T03:11:05.460Z,5.00
2018-01-30T03:13:31.712Z,5.00
2018-01-30T03:15:58.162Z,5.20
2018-01-30T03:18:24.910Z,5.10
2018-01-30T03:20:51.360Z,5.10
2018-01-30T03:23:17.695Z,5.00
2018-01-30T03:25:44.606Z,5.00
2018-01-30T03:28:10.916Z,4.90
2018-01-30T03:30:37.252Z,4.80
2018-01-30T03:33:03.844Z,4.80
2018-01-30T03:35:30.251Z,4.90
2018-01-30T03:37:56.662Z,5.00
2018-01-30T03:40:22.966Z,5.00
2018-01-30T03:42:49.344Z,5.00
2018-01-30T03:45:16.010Z,4.90
2018-01-30T03:47:42.503Z,4.90
2018-01-30T03:50:08.845Z,4.90
2018-01-30T03:52:36.002Z,4.80
2018-01-30T03:55:02.444Z,4.80
2018-01-30T03:57:29.100Z,4.80
2018-01-30T03:59:56.082Z,4.70
2018-01-30T04:02:23.363Z,4.60
2018-01-30T04:04:49.888Z,4.50
2018-01-30T04:07:16.993Z,4.40
2018-01-30T04:09:43.318Z,4.40
2018-01-30T04:12:09.956Z,4.40
2018-01-30T04:14:36.325Z,4.20
2018-01-30T04:17:02.594Z,4.20
2018-01-30T04:19:28.899Z,4.20
2018-01-30T04:21:56.360Z,4.10
2018-01-30T04:24:22.611Z,4.10
2018-01-30T04:26:49.095Z,4.10
2018-01-30T04:29:15.524Z,4.10
2018-01-30T04:31:41.824Z,4.10
2018-01-30T04:34:08.801Z,3.80
2018-01-30T04:36:35.124Z,3.80
2018-01-30T04:39:02.265Z,3.70
2018-01-30T04:41:28.572Z,3.70
2018-01-30T04:43:55.146Z,3.80
2018-01-30T04:46:21.447Z,3.70
2018-01-30T04:48:48.652Z,3.60
2018-01-30T04:51:14.921Z,3.60
2018-01-30T04:53:41.335Z,3.60
2018-01-30T04:56:07.588Z,3.50
2018-01-30T04:58:33.865Z,3.60
2018-01-30T05:01:01.208Z,3.60
2018-01-30T05:03:27.614Z,3.60
2018-01-30T05:05:53.845Z,3.50
2018-01-30T05:08:20.136Z,3.50
2018-01-30T05:10:46.686Z,3.40
2018-01-30T05:13:13.011Z,3.40
2018-01-30T05:15:39.279Z,3.30
2018-01-30T05:18:07.421Z,3.30
2018-01-30T05:20:33.972Z,3.30
2018-01-30T05:23:00.996Z,3.30
2018-01-30T05:25:27.306Z,3.20
2018-01-30T05:27:53.798Z,3.20
2018-01-30T05:30:20.038Z,3.20
2018-01-30T05:32:46.632Z,3.10
2018-01-30T05:35:12.968Z,3.20
2018-01-30T05:37:39.305Z,3.10
2018-01-30T05:40:05.589Z,3.10
2018-01-30T05:42:31.877Z,3.20
2018-01-30T05:44:58.199Z,3.10
2018-01-30T05:47:24.455Z,3.00
2018-01-30T05:49:50.681Z,3.00
2018-01-30T05:52:16.988Z,3.00
2018-01-30T05:54:43.265Z,3.00
2018-01-30T05:57:09.557Z,3.10
2018-01-30T05:59:35.877Z,3.00
2018-01-30T06:02:02.109Z,3.10
2018-01-30T06:04:28.340Z,3.00
2018-01-30T06:06:54.661Z,3.00
2018-01-30T06:09:21.287Z,3.00
2018-01-30T06:11:48.557Z,3.00
2018-01-30T06:14:14.832Z,3.00
2018-01-30T06:16:41.021Z,2.90
2018-01-30T06:19:08.012Z,2.90
2018-01-30T06:21:34.190Z,2.80
2018-01-30T06:24:00.508Z,2.90
2018-01-30T06:26:26.684Z,2.90
2018-01-30T06:28:53.876Z,2.90
2018-01-30T06:31:20.220Z,2.80
2018-01-30T06:33:46.428Z,2.80
2018-01-30T06:36:12.640Z,2.80
2018-01-30T06:38:39.106Z,2.70
2018-01-30T06:41:06.385Z,2.70
2018-01-30T06:43:32.595Z,2.70
2018-01-30T06:45:58.787Z,2.70
2018-01-30T06:48:25.316Z,2.70
2018-01-30T06:50:51.916Z,2.70
2018-01-30T06:53:18.434Z,3.00
2018-01-30T06:55:50.612Z,3.10
2018-01-30T07:00:49.673Z,2.80
2018-01-30T07:03:16.847Z,3.00
2018-01-30T07:05:44.037Z,3.00
2018-01-30T07:08:10.232Z,3.20
2018-01-30T07:10:36.684Z,3.30
2018-01-30T07:13:03.769Z,3.30
2018-01-30T07:15:29.989Z,3.30
2018-01-30T07:17:56.884Z,2.90
2018-01-30T07:20:23.693Z,2.90
2018-01-30T07:22:50.349Z,2.80
2018-01-30T07:25:16.572Z,2.70
2018-01-30T07:27:42.763Z,2.80
2018-01-30T07:30:08.968Z,2.70
2018-01-30T07:32:35.900Z,2.70
2018-01-30T07:35:02.068Z,2.70
2018-01-30T07:37:29.125Z,2.80
2018-01-30T07:39:55.288Z,2.70
2018-01-30T07:42:21.560Z,2.80
2018-01-30T07:44:47.877Z,2.90
2018-01-30T07:47:16.529Z,2.90
2018-01-30T07:49:42.724Z,2.90
2018-01-30T07:52:13.173Z,2.90
2018-01-30T07:54:39.344Z,2.90
2018-01-30T07:57:05.536Z,2.90
2018-01-30T07:59:31.952Z,2.90
2018-01-30T08:01:58.963Z,3.00
2018-01-30T08:04:25.297Z,3.00
2018-01-30T08:06:51.475Z,3.10
2018-01-30T08:09:17.697Z,3.10
2018-01-30T08:11:43.915Z,3.10
2018-01-30T08:14:10.281Z,3.20
2018-01-30T08:16:36.542Z,3.20
2018-01-30T08:19:02.799Z,3.30
2018-01-30T08:21:29.907Z,3.40
2018-01-30T08:23:56.233Z,3.40
2018-01-30T08:26:22.445Z,3.50
2018-01-30T08:28:48.638Z,3.60
2018-01-30T08:31:14.942Z,3.60
2018-01-30T08:33:42.757Z,3.80
2018-01-30T08:36:08.919Z,3.80
2018-01-30T08:38:35.152Z,3.90
2018-01-30T08:41:02.221Z,4.00
2018-01-30T08:43:28.452Z,4.10
2018-01-30T08:45:54.635Z,4.20
2018-01-30T08:48:21.635Z,4.40
2018-01-30T08:50:47.840Z,4.30
2018-01-30T08:53:14.767Z,4.50
2018-01-30T08:55:40.975Z,4.50
2018-01-30T08:58:07.468Z,4.50
2018-01-30T09:00:33.791Z,4.60
2018-01-30T09:03:00.026Z,4.60
2018-01-30T09:05:26.372Z,4.70
2018-01-30T09:07:52.603Z,4.70
2018-01-30T09:10:18.821Z,4.80
2018-01-30T09:12:45.478Z,4.90
2018-01-30T09:15:11.781Z,5.00
2018-01-30T09:17:37.973Z,5.00
2018-01-30T09:20:04.344Z,5.10
2018-01-30T09:22:30.642Z,5.10
2018-01-30T09:24:56.870Z,5.20
2018-01-30T09:27:23.785Z,5.30
2018-01-30T09:29:50.152Z,5.30
2018-01-30T09:32:17.071Z,5.40
2018-01-30T09:34:43.280Z,5.40
2018-01-30T09:37:09.741Z,5.50
2018-01-30T09:39:35.960Z,5.60
2018-01-30T09:42:02.249Z,5.60
2018-01-30T09:44:28.635Z,5.60
2018-01-30T09:46:54.829Z,5.70
2018-01-30T09:49:21.061Z,5.80
2018-01-30T09:51:47.492Z,5.80
2018-01-30T09:54:13.740Z,5.80
2018-01-30T09:56:39.956Z,5.90
2018-01-30T09:59:06.220Z,6.00
2018-01-30T10:01:32.425Z,6.00
2018-01-30T10:03:58.612Z,6.10
2018-01-30T10:06:24.831Z,6.20
2018-01-30T10:08:51.016Z,6.20
2018-01-30T10:11:17.750Z,6.30
2018-01-30T10:13:43.956Z,6.30
2018-01-30T10:16:10.296Z,6.40
2018-01-30T10:18:36.519Z,6.40
2018-01-30T10:21:03.472Z,6.60
2018-01-30T10:23:29.921Z,6.50
2018-01-30T10:25:56.133Z,6.60
2018-01-30T10:28:22.307Z,6.70
2018-01-30T10:30:49.408Z,6.80
2018-01-30T10:33:15.724Z,6.80
2018-01-30T10:35:41.944Z,6.80
2018-01-30T10:38:08.219Z,6.90
2018-01-30T10:40:34.465Z,7.00
2018-01-30T10:43:01.951Z,7.10
2018-01-30T10:45:28.204Z,7.10
2018-01-30T10:47:54.806Z,7.20
2018-01-30T10:50:21.750Z,7.30
2018-01-30T10:52:49.256Z,7.40
2018-01-30T10:55:16.238Z,7.40
2018-01-30T10:57:42.639Z,7.50
2018-01-30T11:00:13.314Z,7.50
2018-01-30T11:02:40.927Z,7.60
2018-01-30T11:05:07.480Z,7.60
2018-01-30T11:07:33.725Z,7.70
2018-01-30T11:10:00.334Z,7.80
2018-01-30T11:12:26.893Z,7.80
2018-01-30T11:14:57.253Z,7.90
2018-01-30T11:17:23.789Z,8.00
2018-01-30T11:19:50.009Z,8.00
2018-01-30T11:22:16.250Z,8.10
2018-01-30T11:24:43.460Z,8.20
2018-01-30T11:27:10.749Z,8.30
2018-01-30T11:29:37.077Z,8.40
2018-01-30T11:32:04.057Z,8.50
2018-01-30T11:34:30.276Z,8.50
2018-01-30T11:36:56.635Z,8.60
2018-01-30T11:39:22.968Z,8.50
2018-01-30T11:41:50.142Z,8.80
2018-01-30T11:44:16.350Z,8.70
2018-01-30T11:46:42.555Z,8.90
2018-01-30T11:49:08.808Z,9.10
2018-01-30T11:51:35.210Z,9.30
2018-01-30T11:54:02.838Z,9.50
2018-01-30T11:56:29.841Z,9.80
2018-01-30T11:58:56.931Z,9.90
2018-01-30T12:01:23.580Z,9.90
2018-01-30T12:03:49.863Z,10.00
2018-01-30T12:06:16.268Z,10.20
2018-01-30T12:08:42.453Z,10.30
2018-01-30T12:11:08.720Z,10.20
2018-01-30T12:13:35.709Z,10.60
2018-01-30T12:16:02.370Z,10.50
2018-01-30T12:18:30.147Z,11.00
2018-01-30T12:20:56.664Z,11.20
2018-01-30T12:23:22.896Z,11.50
2018-01-30T12:25:50.249Z,12.00
2018-01-30T12:28:16.913Z,12.00
2018-01-30T12:30:43.916Z,12.40
2018-01-30T12:33:10.147Z,12.30
2018-01-30T12:38:47.061Z,11.90
2018-01-30T12:41:13.863Z,11.80
2018-01-30T12:43:40.840Z,12.20
2018-01-30T12:46:07.068Z,12.20
2018-01-30T12:48:33.308Z,12.20
2018-01-30T12:51:00.886Z,12.10
2018-01-30T12:53:27.890Z,11.70
2018-01-30T12:55:58.424Z,11.50
2018-01-30T12:58:24.680Z,11.70
2018-01-30T13:00:50.877Z,11.50
2018-01-30T13:03:17.886Z,11.20
2018-01-30T13:05:44.213Z,11.20
2018-01-30T13:08:10.794Z,10.60
2018-01-30T13:10:38.156Z,10.50
2018-01-30T13:13:04.446Z,10.70
2018-01-30T13:15:32.353Z,10.60
2018-01-30T13:17:58.808Z,10.50
2018-01-30T13:20:25.746Z,10.10
2018-01-30T13:22:52.156Z,10.20
2018-01-30T13:25:22.794Z,10.30
2018-01-30T13:27:49.188Z,10.10
2018-01-30T13:30:15.776Z,10.00
2018-01-30T13:32:51.903Z,10.10
2018-01-30T13:35:27.669Z,10.10
2018-01-30T13:37:54.639Z,9.80
2018-01-30T13:40:20.874Z,9.80
2018-01-30T13:42:47.301Z,9.70
2018-01-30T13:45:15.914Z,9.90
2018-01-30T13:47:44.073Z,9.80
2018-01-30T13:50:11.363Z,9.80
2018-01-30T14:44:34.453Z,9.60
2018-01-30T14:47:01.569Z,8.90
2018-01-30T14:49:27.877Z,8.90
2018-01-30T14:52:00.616Z,8.90
2018-01-30T14:54:46.146Z,8.90
2018-01-30T15:00:14.038Z,8.90
2018-01-30T15:02:40.393Z,9.00
2018-01-30T15:05:07.086Z,9.20
2018-01-30T15:07:33.336Z,9.20
2018-01-30T15:10:03.447Z,9.30
2018-01-30T15:12:37.306Z,9.40
2018-01-30T15:15:06.270Z,9.40
2018-01-30T15:17:32.576Z,9.40
2018-01-30T15:22:54.527Z,9.20
2018-01-30T15:25:20.832Z,9.30
2018-01-30T15:27:47.072Z,9.30
2018-01-30T15:30:13.317Z,9.30
2018-01-30T15:32:41.433Z,9.30
2018-01-30T15:38:02.481Z,9.20
2018-01-30T15:43:09.312Z,9.00
2018-01-30T15:45:35.896Z,9.00
2018-01-30T15:48:02.867Z,8.90
2018-01-30T15:50:29.188Z,8.80
2018-01-30T15:52:55.408Z,8.80
2018-01-30T15:55:21.716Z,8.80
2018-01-30T15:57:48.131Z,8.80
2018-01-30T16:09:12.187Z,8.50
2018-01-30T16:11:40.043Z,8.40
2018-01-30T16:14:13.995Z,8.40
2018-01-30T16:16:42.723Z,8.30
2018-01-30T16:19:27.412Z,8.30
2018-01-30T16:21:54.344Z,8.20
2018-01-30T16:24:20.545Z,8.10
2018-01-30T16:26:46.878Z,8.20
2018-01-30T16:29:13.052Z,8.10
2018-01-30T16:37:45.633Z,8.10
2018-01-30T16:40:11.819Z,8.10
2018-01-30T16:48:36.086Z,8.00
2018-01-30T16:51:04.576Z,7.80
2018-01-30T16:56:49.339Z,7.80
2018-01-30T16:59:15.618Z,7.70
2018-01-30T17:01:42.140Z,7.70
2018-01-30T17:04:08.388Z,7.60
2018-01-30T17:06:34.575Z,7.60
2018-01-30T17:09:14.544Z,7.60
2018-01-30T17:11:57.568Z,7.40
2018-01-30T17:14:23.793Z,7.40
2018-01-30T17:16:50.727Z,7.10
2018-01-30T17:22:20.277Z,7.00
2018-01-30T17:24:58.562Z,6.80
2018-01-30T17:27:28.132Z,6.70
2018-01-30T17:29:54.372Z,6.70
2018-01-30T17:32:21.124Z,6.50
2018-01-30T17:34:47.344Z,6.40
2018-01-30T17:40:12.349Z,6.30
2018-01-30T17:42:59.026Z,6.30
2018-01-30T17:45:28.733Z,6.20
2018-01-30T17:47:58.298Z,6.20
2018-01-30T17:50:24.485Z,6.20
2018-01-30T17:52:57.199Z,6.20
2018-01-30T17:55:23.432Z,6.00
2018-01-30T17:57:57.202Z,6.00
2018-01-30T18:00:44.505Z,5.90
2018-01-30T18:06:14.604Z,5.70
2018-01-30T18:08:40.832Z,5.60
2018-01-30T18:11:27.406Z,5.50
2018-01-30T18:13:53.731Z,5.40
2018-01-30T18:16:20.235Z,5.40
2018-01-30T18:18:46.668Z,5.40
2018-01-30T18:21:27.534Z,5.40
2018-01-30T18:23:54.401Z,5.30
2018-01-30T18:26:31.625Z,5.40
2018-01-30T18:28:58.016Z,5.40
2018-01-30T18:31:24.233Z,5.30
2018-01-30T18:33:50.444Z,5.30
2018-01-30T18:36:17.634Z,5.30
2018-01-30T18:38:44.460Z,5.20
2018-01-30T18:41:10.816Z,5.20
2018-01-30T18:43:37.993Z,5.10
2018-01-30T18:49:14.831Z,5.10
2018-01-30T18:54:33.618Z,5.00
2018-01-30T18:57:00.146Z,5.00
2018-01-30T18:59:26.550Z,4.90
2018-01-30T19:01:52.864Z,4.80
2018-01-30T19:04:19.188Z,4.80
2018-01-30T19:06:59.096Z,4.70
2018-01-30T19:09:25.335Z,4.70
2018-01-30T19:11:51.718Z,4.70
2018-01-30T19:16:50.404Z,4.60
2018-01-30T19:19:22.696Z,4.60
2018-01-30T19:21:49.066Z,4.60
2018-01-30T19:24:15.590Z,4.60
2018-01-30T19:26:41.895Z,4.50
2018-01-30T19:29:08.277Z,4.50
2018-01-30T19:31:34.575Z,4.40
2018-01-30T19:39:57.178Z,4.40
2018-01-30T19:42:27.319Z,4.30
2018-01-30T19:44:54.244Z,4.20
2018-01-30T19:47:21.517Z,4.20
2018-01-30T19:49:47.732Z,4.20
2018-01-30T19:52:14.022Z,4.20
2018-01-30T19:54:40.968Z,4.20
2018-01-30T19:57:07.173Z,4.10
2018-01-30T19:59:33.669Z,4.10
2018-01-30T20:02:03.403Z,4.10
2018-01-30T20:04:29.716Z,4.20
2018-01-30T20:06:57.934Z,4.10
2018-01-30T20:09:24.446Z,4.00
2018-01-30T20:11:50.988Z,4.10
2018-01-30T20:14:17.242Z,4.00
2018-01-30T20:16:46.692Z,4.10
2018-01-30T20:21:52.135Z,4.10
2018-01-30T20:24:18.392Z,4.30
2018-01-30T20:26:44.628Z,4.30
2018-01-30T20:29:11.092Z,4.30
2018-01-30T20:31:37.354Z,4.40
2018-01-30T20:34:05.230Z,4.40
2018-01-30T20:36:32.804Z,4.50
2018-01-30T20:38:59.171Z,4.60
2018-01-30T20:41:25.619Z,4.60
2018-01-30T20:43:56.682Z,4.60
2018-01-30T20:46:23.284Z,4.60
2018-01-30T20:48:49.645Z,4.60
2018-01-30T20:51:15.977Z,4.70
2018-01-30T20:53:42.368Z,4.70
2018-01-30T20:56:08.585Z,4.80
2018-01-30T20:58:34.934Z,4.90
2018-01-30T21:01:01.220Z,4.90
2018-01-30T21:03:27.483Z,5.00
2018-01-30T21:05:53.925Z,5.00
2018-01-30T21:08:20.173Z,5.00
2018-01-30T21:10:47.166Z,4.90
2018-01-30T21:13:13.384Z,4.90
2018-01-30T21:15:39.641Z,5.00
2018-01-30T21:18:05.889Z,5.00
2018-01-30T21:20:32.165Z,5.00
2018-01-30T21:22:58.579Z,5.10
2018-01-30T21:25:24.832Z,5.20
2018-01-30T21:27:51.141Z,5.20
2018-01-30T21:30:17.619Z,5.20
2018-01-30T21:32:44.024Z,5.30
2018-01-30T21:35:10.532Z,5.40
2018-01-30T21:37:37.819Z,5.40
2018-01-30T21:40:04.167Z,5.40
2018-01-30T21:42:30.586Z,5.50
2018-01-30T21:44:56.865Z,5.50
2018-01-30T21:47:23.324Z,5.50
2018-01-30T21:49:49.725Z,5.50
2018-01-30T21:52:15.970Z,5.50
2018-01-30T21:54:42.391Z,5.50
2018-01-30T21:57:08.610Z,5.50
2018-01-30T21:59:34.896Z,5.50
2018-01-30T22:02:01.426Z,5.50
2018-01-30T22:04:27.720Z,5.60
2018-01-30T22:06:54.092Z,5.60
2018-01-30T22:09:20.540Z,5.60
2018-01-30T22:11:47.046Z,5.60
2018-01-30T22:14:13.326Z,5.60
2018-01-30T22:16:39.598Z,5.60
2018-01-30T22:19:06.233Z,5.60
2018-01-30T22:21:32.571Z,5.60
2018-01-30T22:23:58.893Z,5.60
2018-01-30T22:26:25.764Z,5.60
2018-01-30T22:28:52.222Z,5.60
2018-01-30T22:31:19.608Z,5.60
2018-01-30T22:33:46.049Z,5.60
2018-01-30T22:36:12.451Z,5.60
2018-01-30T22:38:38.952Z,5.60
2018-01-30T22:41:05.249Z,5.60
2018-01-30T22:43:32.069Z,5.60
2018-01-30T22:45:58.624Z,5.70
